sensor_id;sensor_type;location;lat;lon;timestamp;P1;durP1;ratioP1;P2;durP2;ratioP2
77066;SDS011;65994;50.378;15.470;2023-10-08T00:01:03;8.90;;;3.78;;
77066;SDS011;65994;50.378;15.470;2023-10-08T00:03:51;10.35;;;4.20;;
77066;SDS011;65994;50.378;15.470;2023-10-08T00:06:24;9.55;;;3.45;;
77066;SDS011;65994;50.378;15.470;2023-10-08T00:08:50;8.65;;;4.32;;
77066;SDS011;65994;50.378;15.470;2023-10-08T00:11:17;10.70;;;4.47;;
77066;SDS011;65994;50.378;15.470;2023-10-08T00:13:44;8.18;;;4.07;;
77066;SDS011;65994;50.378;15.470;2023-10-08T00:16:10;9.27;;;4.05;;
77066;SDS011;65994;50.378;15.470;2023-10-08T00:18:42;10.10;;;4.38;;
77066;SDS011;65994;50.378;15.470;2023-10-08T00:21:15;8.82;;;3.55;;
77066;SDS011;65994;50.378;15.470;2023-10-08T00:23:42;8.30;;;4.43;;
77066;SDS011;65994;50.378;15.470;2023-10-08T00:26:09;11.95;;;4.15;;
77066;SDS011;65994;50.378;15.470;2023-10-08T00:28:35;6.90;;;3.97;;
77066;SDS011;65994;50.378;15.470;2023-10-08T00:31:02;9.10;;;4.47;;
77066;SDS011;65994;50.378;15.470;2023-10-08T00:33:32;8.50;;;4.47;;
77066;SDS011;65994;50.378;15.470;2023-10-08T00:35:59;8.43;;;4.38;;
77066;SDS011;65994;50.378;15.470;2023-10-08T00:38:25;7.95;;;4.10;;
77066;SDS011;65994;50.378;15.470;2023-10-08T00:40:57;8.43;;;4.22;;
77066;SDS011;65994;50.378;15.470;2023-10-08T00:45:56;7.35;;;4.15;;
77066;SDS011;65994;50.378;15.470;2023-10-08T00:48:25;8.98;;;4.35;;
77066;SDS011;65994;50.378;15.470;2023-10-08T00:50:56;12.00;;;3.78;;
77066;SDS011;65994;50.378;15.470;2023-10-08T00:53:36;9.77;;;4.30;;
77066;SDS011;65994;50.378;15.470;2023-10-08T00:56:06;8.02;;;3.60;;
77066;SDS011;65994;50.378;15.470;2023-10-08T00:58:45;8.38;;;3.97;;
77066;SDS011;65994;50.378;15.470;2023-10-08T01:01:14;6.47;;;4.03;;
77066;SDS011;65994;50.378;15.470;2023-10-08T01:03:42;9.50;;;4.57;;
77066;SDS011;65994;50.378;15.470;2023-10-08T01:06:11;7.68;;;3.80;;
77066;SDS011;65994;50.378;15.470;2023-10-08T01:08:38;10.80;;;4.03;;
77066;SDS011;65994;50.378;15.470;2023-10-08T01:11:16;10.35;;;4.03;;
77066;SDS011;65994;50.378;15.470;2023-10-08T01:14:05;10.07;;;4.28;;
77066;SDS011;65994;50.378;15.470;2023-10-08T01:16:33;8.63;;;3.97;;
77066;SDS011;65994;50.378;15.470;2023-10-08T01:19:00;10.40;;;4.22;;
77066;SDS011;65994;50.378;15.470;2023-10-08T01:21:30;9.82;;;4.38;;
77066;SDS011;65994;50.378;15.470;2023-10-08T01:24:03;10.80;;;4.93;;
77066;SDS011;65994;50.378;15.470;2023-10-08T01:26:32;9.10;;;3.65;;
77066;SDS011;65994;50.378;15.470;2023-10-08T01:28:59;7.38;;;4.00;;
77066;SDS011;65994;50.378;15.470;2023-10-08T01:31:32;7.30;;;4.05;;
77066;SDS011;65994;50.378;15.470;2023-10-08T01:33:59;8.18;;;4.30;;
77066;SDS011;65994;50.378;15.470;2023-10-08T01:36:26;10.43;;;4.93;;
77066;SDS011;65994;50.378;15.470;2023-10-08T01:38:52;9.95;;;4.35;;
77066;SDS011;65994;50.378;15.470;2023-10-08T01:41:21;12.95;;;4.45;;
77066;SDS011;65994;50.378;15.470;2023-10-08T01:43:56;8.73;;;4.03;;
77066;SDS011;65994;50.378;15.470;2023-10-08T01:46:25;9.13;;;3.90;;
77066;SDS011;65994;50.378;15.470;2023-10-08T01:48:52;9.07;;;3.88;;
77066;SDS011;65994;50.378;15.470;2023-10-08T01:51:22;10.15;;;4.05;;
77066;SDS011;65994;50.378;15.470;2023-10-08T01:53:52;16.70;;;4.20;;
77066;SDS011;65994;50.378;15.470;2023-10-08T01:56:19;11.23;;;4.72;;
77066;SDS011;65994;50.378;15.470;2023-10-08T01:58:46;9.40;;;4.05;;
77066;SDS011;65994;50.378;15.470;2023-10-08T02:01:12;8.40;;;4.13;;
77066;SDS011;65994;50.378;15.470;2023-10-08T02:03:42;7.43;;;4.57;;
77066;SDS011;65994;50.378;15.470;2023-10-08T02:06:08;8.65;;;4.55;;
77066;SDS011;65994;50.378;15.470;2023-10-08T02:08:34;8.90;;;4.35;;
77066;SDS011;65994;50.378;15.470;2023-10-08T02:11:02;8.68;;;4.90;;
77066;SDS011;65994;50.378;15.470;2023-10-08T02:13:28;7.78;;;4.05;;
77066;SDS011;65994;50.378;15.470;2023-10-08T02:15:56;8.13;;;4.13;;
77066;SDS011;65994;50.378;15.470;2023-10-08T02:18:22;9.23;;;4.75;;
77066;SDS011;65994;50.378;15.470;2023-10-08T02:20:49;9.05;;;4.20;;
77066;SDS011;65994;50.378;15.470;2023-10-08T02:23:15;6.82;;;3.78;;
77066;SDS011;65994;50.378;15.470;2023-10-08T02:25:43;9.68;;;4.20;;
77066;SDS011;65994;50.378;15.470;2023-10-08T02:28:10;9.43;;;4.35;;
77066;SDS011;65994;50.378;15.470;2023-10-08T02:30:38;7.60;;;4.03;;
77066;SDS011;65994;50.378;15.470;2023-10-08T02:33:05;17.45;;;4.40;;
77066;SDS011;65994;50.378;15.470;2023-10-08T02:35:50;8.10;;;4.05;;
77066;SDS011;65994;50.378;15.470;2023-10-08T02:38:19;12.05;;;5.15;;
77066;SDS011;65994;50.378;15.470;2023-10-08T02:40:47;8.40;;;4.57;;
77066;SDS011;65994;50.378;15.470;2023-10-08T02:43:14;8.70;;;4.40;;
77066;SDS011;65994;50.378;15.470;2023-10-08T02:45:43;6.78;;;3.92;;
77066;SDS011;65994;50.378;15.470;2023-10-08T02:48:15;11.30;;;4.55;;
77066;SDS011;65994;50.378;15.470;2023-10-08T02:50:42;7.97;;;4.03;;
77066;SDS011;65994;50.378;15.470;2023-10-08T02:53:11;7.55;;;3.92;;
77066;SDS011;65994;50.378;15.470;2023-10-08T02:55:38;8.63;;;4.57;;
77066;SDS011;65994;50.378;15.470;2023-10-08T02:58:14;6.90;;;3.63;;
77066;SDS011;65994;50.378;15.470;2023-10-08T03:00:47;8.38;;;4.20;;
77066;SDS011;65994;50.378;15.470;2023-10-08T03:03:15;10.20;;;4.15;;
77066;SDS011;65994;50.378;15.470;2023-10-08T03:05:43;9.13;;;4.38;;
77066;SDS011;65994;50.378;15.470;2023-10-08T03:08:14;10.25;;;4.05;;
77066;SDS011;65994;50.378;15.470;2023-10-08T03:10:47;10.90;;;4.65;;
77066;SDS011;65994;50.378;15.470;2023-10-08T03:13:28;8.23;;;5.15;;
77066;SDS011;65994;50.378;15.470;2023-10-08T03:15:54;9.52;;;3.83;;
77066;SDS011;65994;50.378;15.470;2023-10-08T03:18:34;7.93;;;4.00;;
77066;SDS011;65994;50.378;15.470;2023-10-08T03:21:08;10.15;;;4.97;;
77066;SDS011;65994;50.378;15.470;2023-10-08T03:23:58;5.82;;;3.83;;
77066;SDS011;65994;50.378;15.470;2023-10-08T03:26:24;9.65;;;4.15;;
77066;SDS011;65994;50.378;15.470;2023-10-08T03:28:56;8.95;;;4.22;;
77066;SDS011;65994;50.378;15.470;2023-10-08T03:31:25;6.35;;;3.75;;
77066;SDS011;65994;50.378;15.470;2023-10-08T03:34:10;12.82;;;4.45;;
77066;SDS011;65994;50.378;15.470;2023-10-08T03:36:41;7.88;;;3.90;;
77066;SDS011;65994;50.378;15.470;2023-10-08T03:39:11;6.47;;;3.78;;
77066;SDS011;65994;50.378;15.470;2023-10-08T03:41:40;7.90;;;4.38;;
77066;SDS011;65994;50.378;15.470;2023-10-08T03:44:07;7.07;;;4.03;;
77066;SDS011;65994;50.378;15.470;2023-10-08T03:46:40;4.10;;;2.75;;
77066;SDS011;65994;50.378;15.470;2023-10-08T03:49:09;5.05;;;2.97;;
77066;SDS011;65994;50.378;15.470;2023-10-08T03:51:44;4.82;;;2.35;;
77066;SDS011;65994;50.378;15.470;2023-10-08T03:54:10;4.53;;;2.35;;
77066;SDS011;65994;50.378;15.470;2023-10-08T03:56:43;2.65;;;1.77;;
77066;SDS011;65994;50.378;15.470;2023-10-08T03:59:14;2.53;;;1.48;;
77066;SDS011;65994;50.378;15.470;2023-10-08T04:02:04;1.77;;;1.25;;
77066;SDS011;65994;50.378;15.470;2023-10-08T04:04:41;1.73;;;1.10;;
77066;SDS011;65994;50.378;15.470;2023-10-08T04:07:21;2.63;;;1.00;;
77066;SDS011;65994;50.378;15.470;2023-10-08T04:09:55;1.85;;;1.00;;
77066;SDS011;65994;50.378;15.470;2023-10-08T04:12:41;1.05;;;0.73;;
77066;SDS011;65994;50.378;15.470;2023-10-08T04:15:14;0.85;;;0.73;;
77066;SDS011;65994;50.378;15.470;2023-10-08T04:17:42;0.65;;;0.52;;
77066;SDS011;65994;50.378;15.470;2023-10-08T04:20:17;0.63;;;0.50;;
77066;SDS011;65994;50.378;15.470;2023-10-08T04:23:05;0.52;;;0.52;;
77066;SDS011;65994;50.378;15.470;2023-10-08T04:25:39;0.70;;;0.52;;
77066;SDS011;65994;50.378;15.470;2023-10-08T04:28:08;1.45;;;0.60;;
77066;SDS011;65994;50.378;15.470;2023-10-08T04:30:40;0.52;;;0.52;;
77066;SDS011;65994;50.378;15.470;2023-10-08T04:33:07;0.85;;;0.70;;
77066;SDS011;65994;50.378;15.470;2023-10-08T04:35:39;0.38;;;0.38;;
77066;SDS011;65994;50.378;15.470;2023-10-08T04:38:22;0.88;;;0.70;;
77066;SDS011;65994;50.378;15.470;2023-10-08T04:40:50;0.82;;;0.43;;
77066;SDS011;65994;50.378;15.470;2023-10-08T04:43:23;0.85;;;0.52;;
77066;SDS011;65994;50.378;15.470;2023-10-08T04:45:57;1.00;;;0.52;;
77066;SDS011;65994;50.378;15.470;2023-10-08T04:48:24;0.60;;;0.52;;
77066;SDS011;65994;50.378;15.470;2023-10-08T04:50:53;1.23;;;0.65;;
77066;SDS011;65994;50.378;15.470;2023-10-08T04:55:58;0.73;;;0.73;;
77066;SDS011;65994;50.378;15.470;2023-10-08T04:58:31;1.50;;;0.65;;
77066;SDS011;65994;50.378;15.470;2023-10-08T05:01:09;0.57;;;0.52;;
77066;SDS011;65994;50.378;15.470;2023-10-08T05:03:58;1.10;;;1.00;;
77066;SDS011;65994;50.378;15.470;2023-10-08T05:06:25;2.13;;;0.73;;
77066;SDS011;65994;50.378;15.470;2023-10-08T05:09:04;0.63;;;0.63;;
77066;SDS011;65994;50.378;15.470;2023-10-08T05:11:37;0.40;;;0.38;;
77066;SDS011;65994;50.378;15.470;2023-10-08T05:14:15;0.90;;;0.52;;
77066;SDS011;65994;50.378;15.470;2023-10-08T05:17:00;0.77;;;0.50;;
77066;SDS011;65994;50.378;15.470;2023-10-08T05:19:51;1.13;;;1.02;;
77066;SDS011;65994;50.378;15.470;2023-10-08T05:22:37;0.60;;;0.55;;
77066;SDS011;65994;50.378;15.470;2023-10-08T05:25:03;0.43;;;0.43;;
77066;SDS011;65994;50.378;15.470;2023-10-08T05:27:43;0.45;;;0.43;;
77066;SDS011;65994;50.378;15.470;2023-10-08T05:30:16;0.90;;;0.77;;
77066;SDS011;65994;50.378;15.470;2023-10-08T05:32:55;1.52;;;0.73;;
77066;SDS011;65994;50.378;15.470;2023-10-08T05:35:40;0.65;;;0.55;;
77066;SDS011;65994;50.378;15.470;2023-10-08T05:38:17;1.27;;;1.00;;
77066;SDS011;65994;50.378;15.470;2023-10-08T05:40:52;1.13;;;0.55;;
77066;SDS011;65994;50.378;15.470;2023-10-08T05:43:22;0.80;;;0.70;;
77066;SDS011;65994;50.378;15.470;2023-10-08T05:51:28;0.63;;;0.63;;
77066;SDS011;65994;50.378;15.470;2023-10-08T05:54:14;1.08;;;0.63;;
77066;SDS011;65994;50.378;15.470;2023-10-08T05:57:02;4.78;;;0.60;;
77066;SDS011;65994;50.378;15.470;2023-10-08T05:59:44;1.13;;;0.50;;
77066;SDS011;65994;50.378;15.470;2023-10-08T06:02:21;1.02;;;0.73;;
77066;SDS011;65994;50.378;15.470;2023-10-08T06:05:01;0.63;;;0.63;;
77066;SDS011;65994;50.378;15.470;2023-10-08T06:07:50;1.45;;;1.30;;
77066;SDS011;65994;50.378;15.470;2023-10-08T06:10:30;1.02;;;0.75;;
77066;SDS011;65994;50.378;15.470;2023-10-08T06:12:58;0.77;;;0.52;;
77066;SDS011;65994;50.378;15.470;2023-10-08T06:15:36;0.80;;;0.73;;
77066;SDS011;65994;50.378;15.470;2023-10-08T06:18:17;0.68;;;0.63;;
77066;SDS011;65994;50.378;15.470;2023-10-08T06:20:45;1.63;;;0.68;;
77066;SDS011;65994;50.378;15.470;2023-10-08T06:23:13;0.68;;;0.63;;
77066;SDS011;65994;50.378;15.470;2023-10-08T06:25:50;1.30;;;0.63;;
77066;SDS011;65994;50.378;15.470;2023-10-08T06:28:37;0.57;;;0.57;;
77066;SDS011;65994;50.378;15.470;2023-10-08T06:31:05;0.90;;;0.70;;
77066;SDS011;65994;50.378;15.470;2023-10-08T06:33:52;1.02;;;0.80;;
77066;SDS011;65994;50.378;15.470;2023-10-08T06:36:18;1.40;;;1.23;;
77066;SDS011;65994;50.378;15.470;2023-10-08T06:38:49;1.17;;;0.70;;
77066;SDS011;65994;50.378;15.470;2023-10-08T06:41:16;1.90;;;0.77;;
77066;SDS011;65994;50.378;15.470;2023-10-08T06:43:46;1.95;;;0.98;;
77066;SDS011;65994;50.378;15.470;2023-10-08T06:46:17;1.58;;;1.17;;
77066;SDS011;65994;50.378;15.470;2023-10-08T06:48:48;1.45;;;0.90;;
77066;SDS011;65994;50.378;15.470;2023-10-08T06:51:15;2.78;;;1.60;;
77066;SDS011;65994;50.378;15.470;2023-10-08T06:53:46;2.40;;;1.30;;
77066;SDS011;65994;50.378;15.470;2023-10-08T06:56:14;3.05;;;1.33;;
77066;SDS011;65994;50.378;15.470;2023-10-08T06:58:42;1.92;;;1.02;;
77066;SDS011;65994;50.378;15.470;2023-10-08T07:01:19;2.70;;;1.23;;
77066;SDS011;65994;50.378;15.470;2023-10-08T07:03:51;2.95;;;1.27;;
77066;SDS011;65994;50.378;15.470;2023-10-08T07:06:18;2.83;;;1.15;;
77066;SDS011;65994;50.378;15.470;2023-10-08T07:08:58;2.28;;;1.33;;
77066;SDS011;65994;50.378;15.470;2023-10-08T07:11:25;2.28;;;1.35;;
77066;SDS011;65994;50.378;15.470;2023-10-08T07:13:55;2.38;;;1.30;;
77066;SDS011;65994;50.378;15.470;2023-10-08T07:16:22;3.80;;;1.33;;
77066;SDS011;65994;50.378;15.470;2023-10-08T07:18:49;2.97;;;1.83;;
77066;SDS011;65994;50.378;15.470;2023-10-08T07:21:18;3.53;;;2.15;;
77066;SDS011;65994;50.378;15.470;2023-10-08T07:23:54;2.92;;;2.08;;
77066;SDS011;65994;50.378;15.470;2023-10-08T07:26:30;2.50;;;1.40;;
77066;SDS011;65994;50.378;15.470;2023-10-08T07:29:03;4.30;;;2.08;;
77066;SDS011;65994;50.378;15.470;2023-10-08T07:31:35;3.55;;;1.80;;
77066;SDS011;65994;50.378;15.470;2023-10-08T07:34:02;5.05;;;1.67;;
77066;SDS011;65994;50.378;15.470;2023-10-08T07:36:42;4.88;;;1.95;;
77066;SDS011;65994;50.378;15.470;2023-10-08T07:39:09;3.20;;;1.70;;
77066;SDS011;65994;50.378;15.470;2023-10-08T07:41:49;2.65;;;1.63;;
77066;SDS011;65994;50.378;15.470;2023-10-08T07:44:15;3.60;;;2.08;;
77066;SDS011;65994;50.378;15.470;2023-10-08T07:46:42;3.17;;;1.80;;
77066;SDS011;65994;50.378;15.470;2023-10-08T07:49:10;6.13;;;1.73;;
77066;SDS011;65994;50.378;15.470;2023-10-08T07:51:40;6.68;;;2.10;;
77066;SDS011;65994;50.378;15.470;2023-10-08T07:54:06;4.28;;;1.85;;
77066;SDS011;65994;50.378;15.470;2023-10-08T07:56:35;3.60;;;1.90;;
77066;SDS011;65994;50.378;15.470;2023-10-08T07:59:04;4.78;;;2.05;;
77066;SDS011;65994;50.378;15.470;2023-10-08T08:01:35;4.22;;;1.80;;
77066;SDS011;65994;50.378;15.470;2023-10-08T08:04:01;4.93;;;2.28;;
77066;SDS011;65994;50.378;15.470;2023-10-08T08:06:27;5.78;;;2.20;;
77066;SDS011;65994;50.378;15.470;2023-10-08T08:08:53;3.90;;;1.95;;
77066;SDS011;65994;50.378;15.470;2023-10-08T08:11:21;4.07;;;2.33;;
77066;SDS011;65994;50.378;15.470;2023-10-08T08:13:52;3.60;;;1.92;;
77066;SDS011;65994;50.378;15.470;2023-10-08T08:16:18;5.53;;;2.28;;
77066;SDS011;65994;50.378;15.470;2023-10-08T08:18:47;4.22;;;3.17;;
77066;SDS011;65994;50.378;15.470;2023-10-08T08:21:25;3.67;;;2.17;;
77066;SDS011;65994;50.378;15.470;2023-10-08T08:23:51;4.30;;;2.10;;
77066;SDS011;65994;50.378;15.470;2023-10-08T08:29:01;3.72;;;2.22;;
77066;SDS011;65994;50.378;15.470;2023-10-08T08:31:29;4.38;;;1.85;;
77066;SDS011;65994;50.378;15.470;2023-10-08T08:34:01;5.18;;;1.92;;
77066;SDS011;65994;50.378;15.470;2023-10-08T08:36:34;5.03;;;1.98;;
77066;SDS011;65994;50.378;15.470;2023-10-08T08:39:03;8.45;;;3.03;;
77066;SDS011;65994;50.378;15.470;2023-10-08T08:41:31;4.32;;;2.08;;
77066;SDS011;65994;50.378;15.470;2023-10-08T08:43:59;4.15;;;2.47;;
77066;SDS011;65994;50.378;15.470;2023-10-08T08:46:27;4.95;;;2.58;;
77066;SDS011;65994;50.378;15.470;2023-10-08T08:48:56;5.95;;;2.03;;
77066;SDS011;65994;50.378;15.470;2023-10-08T08:51:27;5.22;;;2.45;;
77066;SDS011;65994;50.378;15.470;2023-10-08T08:53:55;6.63;;;2.58;;
77066;SDS011;65994;50.378;15.470;2023-10-08T08:56:22;3.70;;;2.15;;
77066;SDS011;65994;50.378;15.470;2023-10-08T09:01:17;4.30;;;2.35;;
77066;SDS011;65994;50.378;15.470;2023-10-08T09:03:45;5.03;;;2.92;;
77066;SDS011;65994;50.378;15.470;2023-10-08T09:06:14;4.72;;;2.47;;
77066;SDS011;65994;50.378;15.470;2023-10-08T09:08:40;5.03;;;2.60;;
77066;SDS011;65994;50.378;15.470;2023-10-08T09:11:15;3.83;;;2.30;;
77066;SDS011;65994;50.378;15.470;2023-10-08T09:13:42;5.90;;;3.10;;
77066;SDS011;65994;50.378;15.470;2023-10-08T09:16:15;6.72;;;2.63;;
77066;SDS011;65994;50.378;15.470;2023-10-08T09:18:43;5.90;;;2.83;;
77066;SDS011;65994;50.378;15.470;2023-10-08T09:21:17;5.30;;;2.25;;
77066;SDS011;65994;50.378;15.470;2023-10-08T09:23:51;5.47;;;2.92;;
77066;SDS011;65994;50.378;15.470;2023-10-08T09:26:23;10.85;;;5.32;;
77066;SDS011;65994;50.378;15.470;2023-10-08T09:28:51;17.15;;;15.15;;
77066;SDS011;65994;50.378;15.470;2023-10-08T09:31:22;10.88;;;9.32;;
77066;SDS011;65994;50.378;15.470;2023-10-08T09:33:55;8.50;;;6.97;;
77066;SDS011;65994;50.378;15.470;2023-10-08T09:36:23;11.85;;;7.47;;
77066;SDS011;65994;50.378;15.470;2023-10-08T09:39:00;12.02;;;6.40;;
77066;SDS011;65994;50.378;15.470;2023-10-08T09:41:31;19.48;;;14.38;;
77066;SDS011;65994;50.378;15.470;2023-10-08T09:44:00;9.70;;;5.43;;
77066;SDS011;65994;50.378;15.470;2023-10-08T09:46:31;18.13;;;14.90;;
77066;SDS011;65994;50.378;15.470;2023-10-08T09:49:02;20.77;;;17.25;;
77066;SDS011;65994;50.378;15.470;2023-10-08T09:51:33;19.00;;;15.55;;
77066;SDS011;65994;50.378;15.470;2023-10-08T09:54:37;9.98;;;8.02;;
77066;SDS011;65994;50.378;15.470;2023-10-08T09:56:59;24.52;;;18.02;;
77066;SDS011;65994;50.378;15.470;2023-10-08T09:59:29;10.68;;;8.18;;
77066;SDS011;65994;50.378;15.470;2023-10-08T10:01:56;10.63;;;6.03;;
77066;SDS011;65994;50.378;15.470;2023-10-08T10:04:25;8.40;;;7.05;;
77066;SDS011;65994;50.378;15.470;2023-10-08T10:06:57;6.60;;;5.00;;
77066;SDS011;65994;50.378;15.470;2023-10-08T10:09:34;6.88;;;3.70;;
77066;SDS011;65994;50.378;15.470;2023-10-08T10:12:02;9.90;;;4.57;;
77066;SDS011;65994;50.378;15.470;2023-10-08T10:14:41;6.32;;;3.65;;
77066;SDS011;65994;50.378;15.470;2023-10-08T10:17:13;18.65;;;13.15;;
77066;SDS011;65994;50.378;15.470;2023-10-08T10:19:41;21.83;;;17.05;;
77066;SDS011;65994;50.378;15.470;2023-10-08T10:22:14;6.45;;;4.63;;
77066;SDS011;65994;50.378;15.470;2023-10-08T10:24:54;9.30;;;6.45;;
77066;SDS011;65994;50.378;15.470;2023-10-08T10:27:22;12.50;;;6.35;;
77066;SDS011;65994;50.378;15.470;2023-10-08T10:29:48;14.23;;;12.93;;
77066;SDS011;65994;50.378;15.470;2023-10-08T10:32:15;9.45;;;6.95;;
77066;SDS011;65994;50.378;15.470;2023-10-08T10:34:42;17.13;;;11.85;;
77066;SDS011;65994;50.378;15.470;2023-10-08T10:37:09;8.43;;;6.50;;
77066;SDS011;65994;50.378;15.470;2023-10-08T10:39:54;14.48;;;10.95;;
77066;SDS011;65994;50.378;15.470;2023-10-08T10:42:24;12.25;;;7.07;;
77066;SDS011;65994;50.378;15.470;2023-10-08T10:44:52;10.95;;;7.38;;
77066;SDS011;65994;50.378;15.470;2023-10-08T10:47:21;13.27;;;8.40;;
77066;SDS011;65994;50.378;15.470;2023-10-08T10:49:48;10.38;;;6.85;;
77066;SDS011;65994;50.378;15.470;2023-10-08T10:52:15;8.90;;;5.05;;
77066;SDS011;65994;50.378;15.470;2023-10-08T10:55:03;9.68;;;4.45;;
77066;SDS011;65994;50.378;15.470;2023-10-08T10:57:55;6.80;;;3.85;;
77066;SDS011;65994;50.378;15.470;2023-10-08T11:00:30;9.80;;;7.20;;
77066;SDS011;65994;50.378;15.470;2023-10-08T11:03:00;29.15;;;20.40;;
77066;SDS011;65994;50.378;15.470;2023-10-08T11:05:50;17.58;;;14.18;;
77066;SDS011;65994;50.378;15.470;2023-10-08T11:08:21;20.63;;;15.80;;
77066;SDS011;65994;50.378;15.470;2023-10-08T11:10:51;9.35;;;8.40;;
77066;SDS011;65994;50.378;15.470;2023-10-08T11:13:20;33.03;;;20.40;;
77066;SDS011;65994;50.378;15.470;2023-10-08T11:15:48;14.75;;;9.77;;
77066;SDS011;65994;50.378;15.470;2023-10-08T11:18:21;8.70;;;5.40;;
77066;SDS011;65994;50.378;15.470;2023-10-08T11:20:49;19.05;;;11.00;;
77066;SDS011;65994;50.378;15.470;2023-10-08T11:23:33;10.88;;;7.47;;
77066;SDS011;65994;50.378;15.470;2023-10-08T11:26:01;11.95;;;7.95;;
77066;SDS011;65994;50.378;15.470;2023-10-08T11:28:35;8.15;;;4.65;;
77066;SDS011;65994;50.378;15.470;2023-10-08T11:31:08;8.30;;;3.70;;
77066;SDS011;65994;50.378;15.470;2023-10-08T11:33:38;8.25;;;5.80;;
77066;SDS011;65994;50.378;15.470;2023-10-08T11:36:08;9.73;;;6.30;;
77066;SDS011;65994;50.378;15.470;2023-10-08T11:38:45;42.83;;;26.55;;
77066;SDS011;65994;50.378;15.470;2023-10-08T11:41:16;62.80;;;37.67;;
77066;SDS011;65994;50.378;15.470;2023-10-08T11:43:54;15.23;;;10.60;;
77066;SDS011;65994;50.378;15.470;2023-10-08T11:46:28;46.28;;;26.23;;
77066;SDS011;65994;50.378;15.470;2023-10-08T11:49:04;21.88;;;14.25;;
77066;SDS011;65994;50.378;15.470;2023-10-08T11:51:31;15.07;;;9.48;;
77066;SDS011;65994;50.378;15.470;2023-10-08T11:53:59;30.80;;;18.80;;
77066;SDS011;65994;50.378;15.470;2023-10-08T11:56:31;7.72;;;4.93;;
77066;SDS011;65994;50.378;15.470;2023-10-08T11:59:02;8.85;;;6.57;;
77066;SDS011;65994;50.378;15.470;2023-10-08T12:01:37;5.47;;;3.95;;
77066;SDS011;65994;50.378;15.470;2023-10-08T12:04:09;8.63;;;5.63;;
77066;SDS011;65994;50.378;15.470;2023-10-08T12:06:41;9.73;;;4.40;;
77066;SDS011;65994;50.378;15.470;2023-10-08T12:09:18;6.75;;;3.35;;
77066;SDS011;65994;50.378;15.470;2023-10-08T12:11:50;6.20;;;3.03;;
77066;SDS011;65994;50.378;15.470;2023-10-08T12:14:17;7.05;;;4.40;;
77066;SDS011;65994;50.378;15.470;2023-10-08T12:16:44;7.70;;;4.60;;
77066;SDS011;65994;50.378;15.470;2023-10-08T12:19:11;5.60;;;3.20;;
77066;SDS011;65994;50.378;15.470;2023-10-08T12:21:44;6.70;;;3.42;;
77066;SDS011;65994;50.378;15.470;2023-10-08T12:24:13;6.10;;;3.30;;
77066;SDS011;65994;50.378;15.470;2023-10-08T12:26:39;4.35;;;2.08;;
77066;SDS011;65994;50.378;15.470;2023-10-08T12:29:12;4.70;;;2.25;;
77066;SDS011;65994;50.378;15.470;2023-10-08T12:31:40;3.40;;;2.03;;
77066;SDS011;65994;50.378;15.470;2023-10-08T12:34:06;6.53;;;2.97;;
77066;SDS011;65994;50.378;15.470;2023-10-08T12:36:37;7.88;;;2.70;;
77066;SDS011;65994;50.378;15.470;2023-10-08T12:39:04;4.53;;;2.45;;
77066;SDS011;65994;50.378;15.470;2023-10-08T12:41:43;4.45;;;2.60;;
77066;SDS011;65994;50.378;15.470;2023-10-08T12:44:10;15.88;;;13.32;;
77066;SDS011;65994;50.378;15.470;2023-10-08T12:46:38;13.43;;;12.02;;
77066;SDS011;65994;50.378;15.470;2023-10-08T12:49:04;8.13;;;6.72;;
77066;SDS011;65994;50.378;15.470;2023-10-08T12:51:30;4.65;;;3.20;;
77066;SDS011;65994;50.378;15.470;2023-10-08T12:54:00;8.88;;;7.03;;
77066;SDS011;65994;50.378;15.470;2023-10-08T12:56:33;7.22;;;6.50;;
77066;SDS011;65994;50.378;15.470;2023-10-08T12:59:20;7.13;;;4.32;;
77066;SDS011;65994;50.378;15.470;2023-10-08T13:01:47;9.00;;;4.40;;
77066;SDS011;65994;50.378;15.470;2023-10-08T13:04:23;6.35;;;3.90;;
77066;SDS011;65994;50.378;15.470;2023-10-08T13:07:00;6.03;;;4.00;;
77066;SDS011;65994;50.378;15.470;2023-10-08T13:09:29;6.85;;;3.72;;
77066;SDS011;65994;50.378;15.470;2023-10-08T13:11:56;3.92;;;2.80;;
77066;SDS011;65994;50.378;15.470;2023-10-08T13:14:25;6.63;;;4.57;;
77066;SDS011;65994;50.378;15.470;2023-10-08T13:16:51;6.88;;;4.20;;
77066;SDS011;65994;50.378;15.470;2023-10-08T13:19:20;15.77;;;11.68;;
77066;SDS011;65994;50.378;15.470;2023-10-08T13:21:46;7.88;;;5.00;;
77066;SDS011;65994;50.378;15.470;2023-10-08T13:24:13;22.98;;;13.05;;
77066;SDS011;65994;50.378;15.470;2023-10-08T13:26:42;5.93;;;3.75;;
77066;SDS011;65994;50.378;15.470;2023-10-08T13:29:14;5.72;;;2.35;;
77066;SDS011;65994;50.378;15.470;2023-10-08T13:31:40;3.70;;;2.28;;
77066;SDS011;65994;50.378;15.470;2023-10-08T13:34:07;4.35;;;1.88;;
77066;SDS011;65994;50.378;15.470;2023-10-08T13:36:38;5.45;;;2.40;;
77066;SDS011;65994;50.378;15.470;2023-10-08T13:39:05;4.00;;;2.10;;
77066;SDS011;65994;50.378;15.470;2023-10-08T13:41:35;4.75;;;2.15;;
77066;SDS011;65994;50.378;15.470;2023-10-08T13:44:04;7.38;;;2.63;;
77066;SDS011;65994;50.378;15.470;2023-10-08T13:46:33;5.50;;;2.17;;
77066;SDS011;65994;50.378;15.470;2023-10-08T13:51:28;4.20;;;3.17;;
77066;SDS011;65994;50.378;15.470;2023-10-08T13:53:57;4.50;;;1.90;;
77066;SDS011;65994;50.378;15.470;2023-10-08T13:56:27;3.60;;;2.33;;
77066;SDS011;65994;50.378;15.470;2023-10-08T13:58:56;3.60;;;2.03;;
77066;SDS011;65994;50.378;15.470;2023-10-08T14:01:30;4.15;;;1.95;;
77066;SDS011;65994;50.378;15.470;2023-10-08T14:03:59;4.75;;;2.53;;
77066;SDS011;65994;50.378;15.470;2023-10-08T14:06:35;4.72;;;3.15;;
77066;SDS011;65994;50.378;15.470;2023-10-08T14:09:03;4.32;;;2.90;;
77066;SDS011;65994;50.378;15.470;2023-10-08T14:11:34;4.20;;;2.55;;
77066;SDS011;65994;50.378;15.470;2023-10-08T14:14:01;5.68;;;2.40;;
77066;SDS011;65994;50.378;15.470;2023-10-08T14:16:39;3.85;;;2.15;;
77066;SDS011;65994;50.378;15.470;2023-10-08T14:19:09;4.57;;;2.88;;
77066;SDS011;65994;50.378;15.470;2023-10-08T14:21:38;4.55;;;3.20;;
77066;SDS011;65994;50.378;15.470;2023-10-08T14:24:16;4.43;;;2.33;;
77066;SDS011;65994;50.378;15.470;2023-10-08T14:26:42;3.53;;;2.28;;
77066;SDS011;65994;50.378;15.470;2023-10-08T14:29:09;4.90;;;2.30;;
77066;SDS011;65994;50.378;15.470;2023-10-08T14:31:41;4.57;;;2.10;;
77066;SDS011;65994;50.378;15.470;2023-10-08T14:34:10;4.55;;;2.03;;
77066;SDS011;65994;50.378;15.470;2023-10-08T14:36:45;4.60;;;2.28;;
77066;SDS011;65994;50.378;15.470;2023-10-08T14:39:31;3.55;;;2.03;;
77066;SDS011;65994;50.378;15.470;2023-10-08T14:42:17;5.70;;;2.33;;
77066;SDS011;65994;50.378;15.470;2023-10-08T14:45:02;3.83;;;1.92;;
77066;SDS011;65994;50.378;15.470;2023-10-08T14:47:29;4.88;;;2.90;;
77066;SDS011;65994;50.378;15.470;2023-10-08T14:49:55;3.97;;;2.33;;
77066;SDS011;65994;50.378;15.470;2023-10-08T14:52:23;4.88;;;2.78;;
77066;SDS011;65994;50.378;15.470;2023-10-08T14:54:52;4.10;;;2.20;;
77066;SDS011;65994;50.378;15.470;2023-10-08T14:57:18;4.28;;;2.13;;
77066;SDS011;65994;50.378;15.470;2023-10-08T14:59:45;3.60;;;2.35;;
77066;SDS011;65994;50.378;15.470;2023-10-08T15:02:11;6.90;;;2.13;;
77066;SDS011;65994;50.378;15.470;2023-10-08T15:04:37;3.67;;;2.20;;
77066;SDS011;65994;50.378;15.470;2023-10-08T15:07:06;3.78;;;1.98;;
77066;SDS011;65994;50.378;15.470;2023-10-08T15:09:37;5.03;;;2.40;;
77066;SDS011;65994;50.378;15.470;2023-10-08T15:12:05;61.88;;;28.02;;
77066;SDS011;65994;50.378;15.470;2023-10-08T15:14:35;12.75;;;8.88;;